sensor_id;sensor_type;location;lat;lon;timestamp;temperature;humidity
20829;DHT22;10575;50.124;8.582;2024-01-16T00:01:12;1.20;99.90
20829;DHT22;10575;50.124;8.582;2024-01-16T00:03:38;1.30;99.90
20829;DHT22;10575;50.124;8.582;2024-01-16T00:06:03;1.20;99.90
20829;DHT22;10575;50.124;8.582;2024-01-16T00:08:29;1.30;99.90
20829;DHT22;10575;50.124;8.582;2024-01-16T00:10:55;1.30;99.90
20829;DHT22;10575;50.124;8.582;2024-01-16T00:13:20;1.20;99.90
20829;DHT22;10575;50.124;8.582;2024-01-16T00:15:46;1.10;99.90
20829;DHT22;10575;50.124;8.582;2024-01-16T00:18:12;1.20;99.90
20829;DHT22;10575;50.124;8.582;2024-01-16T00:20:38;1.20;99.90
20829;DHT22;10575;50.124;8.582;2024-01-16T00:23:03;1.40;99.90
20829;DHT22;10575;50.124;8.582;2024-01-16T00:25:29;1.40;99.90
20829;DHT22;10575;50.124;8.582;2024-01-16T00:27:55;1.30;99.90
20829;DHT22;10575;50.124;8.582;2024-01-16T00:30:20;1.40;99.90
20829;DHT22;10575;50.124;8.582;2024-01-16T00:32:46;1.50;99.90
20829;DHT22;10575;50.124;8.582;2024-01-16T00:35:12;1.50;99.90
20829;DHT22;10575;50.124;8.582;2024-01-16T00:37:37;1.50;99.90
20829;DHT22;10575;50.124;8.582;2024-01-16T00:40:04;1.50;99.90
20829;DHT22;10575;50.124;8.582;2024-01-16T00:42:32;1.50;99.90
20829;DHT22;10575;50.124;8.582;2024-01-16T00:44:58;1.40;99.90
20829;DHT22;10575;50.124;8.582;2024-01-16T00:47:24;1.40;99.90
20829;DHT22;10575;50.124;8.582;2024-01-16T00:49:50;1.30;99.90
20829;DHT22;10575;50.124;8.582;2024-01-16T00:52:15;1.30;99.90
20829;DHT22;10575;50.124;8.582;2024-01-16T00:54:42;1.20;99.90
20829;DHT22;10575;50.124;8.582;2024-01-16T00:57:07;1.00;99.90
20829;DHT22;10575;50.124;8.582;2024-01-16T00:59:33;0.90;99.90
20829;DHT22;10575;50.124;8.582;2024-01-16T01:01:58;0.90;99.90
20829;DHT22;10575;50.124;8.582;2024-01-16T01:04:24;0.80;99.90
20829;DHT22;10575;50.124;8.582;2024-01-16T01:06:49;0.70;99.90
20829;DHT22;10575;50.124;8.582;2024-01-16T01:09:16;0.60;99.90
20829;DHT22;10575;50.124;8.582;2024-01-16T01:11:41;0.70;99.90
20829;DHT22;10575;50.124;8.582;2024-01-16T01:14:07;0.70;99.90
20829;DHT22;10575;50.124;8.582;2024-01-16T01:16:33;0.80;99.90
20829;DHT22;10575;50.124;8.582;2024-01-16T01:18:58;0.90;99.90
20829;DHT22;10575;50.124;8.582;2024-01-16T01:21:24;1.00;99.90
20829;DHT22;10575;50.124;8.582;2024-01-16T01:23:49;1.00;99.90
20829;DHT22;10575;50.124;8.582;2024-01-16T01:26:15;1.00;99.90
20829;DHT22;10575;50.124;8.582;2024-01-16T01:28:43;1.00;99.90
20829;DHT22;10575;50.124;8.582;2024-01-16T01:31:10;0.90;99.90
20829;DHT22;10575;50.124;8.582;2024-01-16T01:33:35;0.90;99.90
20829;DHT22;10575;50.124;8.582;2024-01-16T01:36:03;0.80;99.90
20829;DHT22;10575;50.124;8.582;2024-01-16T01:38:29;0.80;99.90
20829;DHT22;10575;50.124;8.582;2024-01-16T01:40:54;0.80;99.90
20829;DHT22;10575;50.124;8.582;2024-01-16T01:43:22;0.90;99.90
20829;DHT22;10575;50.124;8.582;2024-01-16T01:46:16;0.80;99.90
20829;DHT22;10575;50.124;8.582;2024-01-16T01:48:43;0.80;99.90
20829;DHT22;10575;50.124;8.582;2024-01-16T01:51:12;0.80;99.90
20829;DHT22;10575;50.124;8.582;2024-01-16T01:53:39;0.80;99.90
20829;DHT22;10575;50.124;8.582;2024-01-16T01:56:08;0.90;99.90
20829;DHT22;10575;50.124;8.582;2024-01-16T01:58:34;1.00;99.90
20829;DHT22;10575;50.124;8.582;2024-01-16T02:01:02;1.10;99.90
20829;DHT22;10575;50.124;8.582;2024-01-16T02:03:34;1.20;99.90
20829;DHT22;10575;50.124;8.582;2024-01-16T02:06:00;1.20;99.90
20829;DHT22;10575;50.124;8.582;2024-01-16T02:08:26;1.30;99.90
20829;DHT22;10575;50.124;8.582;2024-01-16T02:10:52;1.20;99.90
20829;DHT22;10575;50.124;8.582;2024-01-16T02:13:19;1.20;99.90
20829;DHT22;10575;50.124;8.582;2024-01-16T02:15:48;1.40;99.90
20829;DHT22;10575;50.124;8.582;2024-01-16T02:18:14;1.40;99.90
20829;DHT22;10575;50.124;8.582;2024-01-16T02:20:39;1.30;99.90
20829;DHT22;10575;50.124;8.582;2024-01-16T02:23:05;1.30;99.90
20829;DHT22;10575;50.124;8.582;2024-01-16T02:25:32;1.20;99.90
20829;DHT22;10575;50.124;8.582;2024-01-16T02:28:00;1.20;99.90
20829;DHT22;10575;50.124;8.582;2024-01-16T02:30:26;1.10;99.90
20829;DHT22;10575;50.124;8.582;2024-01-16T02:32:53;1.10;99.90
20829;DHT22;10575;50.124;8.582;2024-01-16T02:35:18;1.10;99.90
20829;DHT22;10575;50.124;8.582;2024-01-16T02:37:44;1.20;99.90
20829;DHT22;10575;50.124;8.582;2024-01-16T02:40:10;1.20;99.90
20829;DHT22;10575;50.124;8.582;2024-01-16T02:42:36;1.30;99.90
20829;DHT22;10575;50.124;8.582;2024-01-16T02:45:04;1.40;99.90
20829;DHT22;10575;50.124;8.582;2024-01-16T02:47:29;1.50;99.90
20829;DHT22;10575;50.124;8.582;2024-01-16T02:49:55;1.70;99.90
20829;DHT22;10575;50.124;8.582;2024-01-16T02:52:21;1.80;99.90
20829;DHT22;10575;50.124;8.582;2024-01-16T02:54:46;1.80;99.90
20829;DHT22;10575;50.124;8.582;2024-01-16T02:57:12;1.90;99.90
20829;DHT22;10575;50.124;8.582;2024-01-16T02:59:38;2.00;99.90
20829;DHT22;10575;50.124;8.582;2024-01-16T03:02:03;1.90;99.90
20829;DHT22;10575;50.124;8.582;2024-01-16T03:04:29;1.90;99.90
20829;DHT22;10575;50.124;8.582;2024-01-16T03:06:55;1.90;99.90
20829;DHT22;10575;50.124;8.582;2024-01-16T03:09:20;1.80;99.90
20829;DHT22;10575;50.124;8.582;2024-01-16T03:11:46;1.80;99.90
20829;DHT22;10575;50.124;8.582;2024-01-16T03:14:12;1.70;99.90
20829;DHT22;10575;50.124;8.582;2024-01-16T03:16:39;1.70;99.90
20829;DHT22;10575;50.124;8.582;2024-01-16T03:19:04;1.70;99.90
20829;DHT22;10575;50.124;8.582;2024-01-16T03:21:30;1.70;99.90
20829;DHT22;10575;50.124;8.582;2024-01-16T03:23:55;1.70;99.90
20829;DHT22;10575;50.124;8.582;2024-01-16T03:26:21;1.60;99.90
20829;DHT22;10575;50.124;8.582;2024-01-16T03:28:46;1.50;99.90
20829;DHT22;10575;50.124;8.582;2024-01-16T03:31:13;1.50;99.90
20829;DHT22;10575;50.124;8.582;2024-01-16T03:33:39;1.40;99.90
20829;DHT22;10575;50.124;8.582;2024-01-16T03:36:10;1.50;99.90
20829;DHT22;10575;50.124;8.582;2024-01-16T03:38:37;1.50;99.90
20829;DHT22;10575;50.124;8.582;2024-01-16T03:41:03;1.40;99.90
20829;DHT22;10575;50.124;8.582;2024-01-16T03:43:29;1.40;99.90
20829;DHT22;10575;50.124;8.582;2024-01-16T03:45:58;1.40;99.90
20829;DHT22;10575;50.124;8.582;2024-01-16T03:48:23;1.40;99.90
20829;DHT22;10575;50.124;8.582;2024-01-16T03:50:49;1.40;99.90
20829;DHT22;10575;50.124;8.582;2024-01-16T03:53:14;1.40;99.90
20829;DHT22;10575;50.124;8.582;2024-01-16T03:55:40;1.50;99.90
20829;DHT22;10575;50.124;8.582;2024-01-16T03:58:05;1.50;99.90
20829;DHT22;10575;50.124;8.582;2024-01-16T04:00:31;1.50;99.90
20829;DHT22;10575;50.124;8.582;2024-01-16T04:02:57;1.30;99.90
20829;DHT22;10575;50.124;8.582;2024-01-16T04:05:22;1.20;99.90
20829;DHT22;10575;50.124;8.582;2024-01-16T04:07:48;1.10;99.90
20829;DHT22;10575;50.124;8.582;2024-01-16T04:10:13;1.10;99.90
20829;DHT22;10575;50.124;8.582;2024-01-16T04:12:39;1.00;99.90
20829;DHT22;10575;50.124;8.582;2024-01-16T04:15:05;1.00;99.90
20829;DHT22;10575;50.124;8.582;2024-01-16T04:17:30;1.20;99.90
20829;DHT22;10575;50.124;8.582;2024-01-16T04:19:56;1.20;99.90
20829;DHT22;10575;50.124;8.582;2024-01-16T04:22:21;1.20;99.90
20829;DHT22;10575;50.124;8.582;2024-01-16T04:24:47;1.20;99.90
20829;DHT22;10575;50.124;8.582;2024-01-16T04:27:13;1.30;99.90
20829;DHT22;10575;50.124;8.582;2024-01-16T04:29:38;1.50;99.90
20829;DHT22;10575;50.124;8.582;2024-01-16T04:32:04;1.60;99.90
20829;DHT22;10575;50.124;8.582;2024-01-16T04:34:30;1.60;99.90
20829;DHT22;10575;50.124;8.582;2024-01-16T04:36:55;1.70;99.90
20829;DHT22;10575;50.124;8.582;2024-01-16T04:39:21;1.70;99.90
20829;DHT22;10575;50.124;8.582;2024-01-16T04:41:48;1.60;99.90
20829;DHT22;10575;50.124;8.582;2024-01-16T04:44:14;1.40;99.90
20829;DHT22;10575;50.124;8.582;2024-01-16T04:46:40;1.30;99.90
20829;DHT22;10575;50.124;8.582;2024-01-16T04:49:05;1.30;99.90
20829;DHT22;10575;50.124;8.582;2024-01-16T04:51:31;1.20;99.90
20829;DHT22;10575;50.124;8.582;2024-01-16T04:53:56;1.10;99.90
20829;DHT22;10575;50.124;8.582;2024-01-16T04:56:22;1.20;99.90
20829;DHT22;10575;50.124;8.582;2024-01-16T04:58:47;1.30;99.90
20829;DHT22;10575;50.124;8.582;2024-01-16T05:01:13;1.30;99.90
20829;DHT22;10575;50.124;8.582;2024-01-16T05:03:38;1.30;99.90
20829;DHT22;10575;50.124;8.582;2024-01-16T05:06:04;1.30;99.90
20829;DHT22;10575;50.124;8.582;2024-01-16T05:08:32;1.20;99.90
20829;DHT22;10575;50.124;8.582;2024-01-16T05:10:58;1.10;99.90
20829;DHT22;10575;50.124;8.582;2024-01-16T05:13:23;1.10;99.90
20829;DHT22;10575;50.124;8.582;2024-01-16T05:15:49;1.20;99.90
20829;DHT22;10575;50.124;8.582;2024-01-16T05:18:14;1.30;99.90
20829;DHT22;10575;50.124;8.582;2024-01-16T05:20:40;1.40;99.90
20829;DHT22;10575;50.124;8.582;2024-01-16T05:23:05;1.40;99.90
20829;DHT22;10575;50.124;8.582;2024-01-16T05:25:31;1.30;99.90
20829;DHT22;10575;50.124;8.582;2024-01-16T05:27:56;1.30;99.90
20829;DHT22;10575;50.124;8.582;2024-01-16T05:30:22;1.30;99.90
20829;DHT22;10575;50.124;8.582;2024-01-16T05:32:47;1.40;99.90
20829;DHT22;10575;50.124;8.582;2024-01-16T05:35:13;1.40;99.90
20829;DHT22;10575;50.124;8.582;2024-01-16T05:37:39;1.40;99.90
20829;DHT22;10575;50.124;8.582;2024-01-16T05:40:04;1.40;99.90
20829;DHT22;10575;50.124;8.582;2024-01-16T05:42:32;1.40;99.90
20829;DHT22;10575;50.124;8.582;2024-01-16T05:44:58;1.30;99.90
20829;DHT22;10575;50.124;8.582;2024-01-16T05:47:23;1.30;99.90
20829;DHT22;10575;50.124;8.582;2024-01-16T05:49:53;1.20;99.90
20829;DHT22;10575;50.124;8.582;2024-01-16T05:52:19;1.20;99.90
20829;DHT22;10575;50.124;8.582;2024-01-16T05:54:44;1.20;99.90
20829;DHT22;10575;50.124;8.582;2024-01-16T05:57:10;1.20;99.90
20829;DHT22;10575;50.124;8.582;2024-01-16T05:59:35;1.20;99.90
20829;DHT22;10575;50.124;8.582;2024-01-16T06:02:01;1.20;99.90
20829;DHT22;10575;50.124;8.582;2024-01-16T06:04:26;1.20;99.90
20829;DHT22;10575;50.124;8.582;2024-01-16T06:06:52;1.10;99.90
20829;DHT22;10575;50.124;8.582;2024-01-16T06:09:17;1.10;99.90
20829;DHT22;10575;50.124;8.582;2024-01-16T06:11:43;1.00;99.90
20829;DHT22;10575;50.124;8.582;2024-01-16T06:14:09;1.00;99.90
20829;DHT22;10575;50.124;8.582;2024-01-16T06:16:35;1.00;99.90
20829;DHT22;10575;50.124;8.582;2024-01-16T06:19:01;1.00;99.90
20829;DHT22;10575;50.124;8.582;2024-01-16T06:21:27;1.00;99.90
20829;DHT22;10575;50.124;8.582;2024-01-16T06:23:52;1.00;99.90
20829;DHT22;10575;50.124;8.582;2024-01-16T06:26:18;1.00;99.90
20829;DHT22;10575;50.124;8.582;2024-01-16T06:28:45;1.00;99.90
20829;DHT22;10575;50.124;8.582;2024-01-16T06:31:11;0.90;99.90
20829;DHT22;10575;50.124;8.582;2024-01-16T06:33:37;0.80;99.90
20829;DHT22;10575;50.124;8.582;2024-01-16T06:36:03;0.70;99.90
20829;DHT22;10575;50.124;8.582;2024-01-16T06:38:32;0.60;99.90
20829;DHT22;10575;50.124;8.582;2024-01-16T06:40:57;0.50;99.90
20829;DHT22;10575;50.124;8.582;2024-01-16T06:43:23;0.50;99.90
20829;DHT22;10575;50.124;8.582;2024-01-16T06:45:49;0.50;99.90
20829;DHT22;10575;50.124;8.582;2024-01-16T06:48:14;0.40;99.90
20829;DHT22;10575;50.124;8.582;2024-01-16T06:50:40;0.40;99.90
20829;DHT22;10575;50.124;8.582;2024-01-16T06:53:07;0.40;99.90
20829;DHT22;10575;50.124;8.582;2024-01-16T06:55:33;0.40;99.90
20829;DHT22;10575;50.124;8.582;2024-01-16T06:57:58;0.40;99.90
20829;DHT22;10575;50.124;8.582;2024-01-16T07:00:26;0.40;99.90
20829;DHT22;10575;50.124;8.582;2024-01-16T07:02:53;0.40;99.90
20829;DHT22;10575;50.124;8.582;2024-01-16T07:05:19;0.40;99.90
20829;DHT22;10575;50.124;8.582;2024-01-16T07:07:45;0.40;99.90
20829;DHT22;10575;50.124;8.582;2024-01-16T07:10:10;0.40;99.90
20829;DHT22;10575;50.124;8.582;2024-01-16T07:12:43;0.40;99.90
20829;DHT22;10575;50.124;8.582;2024-01-16T07:15:09;0.30;99.90
20829;DHT22;10575;50.124;8.582;2024-01-16T07:17:34;0.30;99.90
20829;DHT22;10575;50.124;8.582;2024-01-16T07:20:00;0.30;99.90
20829;DHT22;10575;50.124;8.582;2024-01-16T07:22:25;0.30;99.90
20829;DHT22;10575;50.124;8.582;2024-01-16T07:24:52;0.30;99.90
20829;DHT22;10575;50.124;8.582;2024-01-16T07:27:17;0.30;99.90
20829;DHT22;10575;50.124;8.582;2024-01-16T07:29:43;0.40;99.90
20829;DHT22;10575;50.124;8.582;2024-01-16T07:32:08;0.40;99.90
20829;DHT22;10575;50.124;8.582;2024-01-16T07:34:36;0.40;99.90
20829;DHT22;10575;50.124;8.582;2024-01-16T07:37:02;0.40;99.90
20829;DHT22;10575;50.124;8.582;2024-01-16T07:39:27;0.30;99.90
20829;DHT22;10575;50.124;8.582;2024-01-16T07:41:53;0.30;99.90
20829;DHT22;10575;50.124;8.582;2024-01-16T07:44:18;0.20;99.90
20829;DHT22;10575;50.124;8.582;2024-01-16T07:46:43;0.20;99.90
20829;DHT22;10575;50.124;8.582;2024-01-16T07:49:09;0.30;99.90
20829;DHT22;10575;50.124;8.582;2024-01-16T07:51:35;0.40;99.90
20829;DHT22;10575;50.124;8.582;2024-01-16T07:54:09;0.40;99.90
20829;DHT22;10575;50.124;8.582;2024-01-16T07:56:35;0.40;99.90
20829;DHT22;10575;50.124;8.582;2024-01-16T07:59:01;0.40;99.90
20829;DHT22;10575;50.124;8.582;2024-01-16T08:01:27;0.60;99.90
20829;DHT22;10575;50.124;8.582;2024-01-16T08:03:54;0.70;99.90
20829;DHT22;10575;50.124;8.582;2024-01-16T08:06:19;0.70;99.90
20829;DHT22;10575;50.124;8.582;2024-01-16T08:08:45;0.80;99.90
20829;DHT22;10575;50.124;8.582;2024-01-16T08:11:12;0.90;99.90
20829;DHT22;10575;50.124;8.582;2024-01-16T08:13:37;1.00;99.90
20829;DHT22;10575;50.124;8.582;2024-01-16T08:16:04;1.00;99.90
20829;DHT22;10575;50.124;8.582;2024-01-16T08:18:29;1.10;99.90
20829;DHT22;10575;50.124;8.582;2024-01-16T08:20:56;1.10;99.90
20829;DHT22;10575;50.124;8.582;2024-01-16T08:23:22;1.20;99.90
20829;DHT22;10575;50.124;8.582;2024-01-16T08:25:48;1.20;99.90
20829;DHT22;10575;50.124;8.582;2024-01-16T08:28:14;1.20;99.90
20829;DHT22;10575;50.124;8.582;2024-01-16T08:30:40;1.40;99.90
20829;DHT22;10575;50.124;8.582;2024-01-16T08:33:06;1.40;99.90
20829;DHT22;10575;50.124;8.582;2024-01-16T08:35:32;1.50;99.90
20829;DHT22;10575;50.124;8.582;2024-01-16T08:37:58;1.60;99.90
20829;DHT22;10575;50.124;8.582;2024-01-16T08:40:24;1.60;99.90
20829;DHT22;10575;50.124;8.582;2024-01-16T08:42:49;1.70;99.90
20829;DHT22;10575;50.124;8.582;2024-01-16T08:45:22;1.70;99.90
20829;DHT22;10575;50.124;8.582;2024-01-16T08:47:48;1.70;99.90
20829;DHT22;10575;50.124;8.582;2024-01-16T08:50:15;1.70;99.90
20829;DHT22;10575;50.124;8.582;2024-01-16T08:52:41;1.60;99.90
20829;DHT22;10575;50.124;8.582;2024-01-16T08:55:07;1.60;99.90
20829;DHT22;10575;50.124;8.582;2024-01-16T08:57:34;1.70;99.90
20829;DHT22;10575;50.124;8.582;2024-01-16T09:00:00;1.80;99.90
20829;DHT22;10575;50.124;8.582;2024-01-16T09:02:26;1.90;99.90
20829;DHT22;10575;50.124;8.582;2024-01-16T09:04:54;1.70;99.90
20829;DHT22;10575;50.124;8.582;2024-01-16T09:07:20;1.80;99.90
20829;DHT22;10575;50.124;8.582;2024-01-16T09:09:45;1.90;99.90
20829;DHT22;10575;50.124;8.582;2024-01-16T09:12:11;1.90;99.90
20829;DHT22;10575;50.124;8.582;2024-01-16T09:14:37;1.90;99.90
20829;DHT22;10575;50.124;8.582;2024-01-16T09:17:03;1.80;99.90
20829;DHT22;10575;50.124;8.582;2024-01-16T09:19:29;1.80;99.90
20829;DHT22;10575;50.124;8.582;2024-01-16T09:21:55;1.90;99.90
20829;DHT22;10575;50.124;8.582;2024-01-16T09:24:21;2.00;99.90
20829;DHT22;10575;50.124;8.582;2024-01-16T09:26:47;2.00;99.90
20829;DHT22;10575;50.124;8.582;2024-01-16T09:29:12;2.20;99.90
20829;DHT22;10575;50.124;8.582;2024-01-16T09:31:42;2.20;99.90
20829;DHT22;10575;50.124;8.582;2024-01-16T09:34:08;2.30;99.90
20829;DHT22;10575;50.124;8.582;2024-01-16T09:36:33;2.40;99.90
20829;DHT22;10575;50.124;8.582;2024-01-16T09:39:01;2.40;99.90
20829;DHT22;10575;50.124;8.582;2024-01-16T09:41:28;2.40;99.90
20829;DHT22;10575;50.124;8.582;2024-01-16T09:43:53;2.50;99.90
20829;DHT22;10575;50.124;8.582;2024-01-16T09:46:22;2.60;99.90
20829;DHT22;10575;50.124;8.582;2024-01-16T09:48:49;2.60;99.90
20829;DHT22;10575;50.124;8.582;2024-01-16T09:51:16;2.50;99.90
20829;DHT22;10575;50.124;8.582;2024-01-16T09:53:42;2.50;99.90
20829;DHT22;10575;50.124;8.582;2024-01-16T09:56:15;2.40;99.90
20829;DHT22;10575;50.124;8.582;2024-01-16T09:58:43;2.50;99.90
20829;DHT22;10575;50.124;8.582;2024-01-16T10:01:09;2.50;99.90
20829;DHT22;10575;50.124;8.582;2024-01-16T10:03:35;2.50;99.90
20829;DHT22;10575;50.124;8.582;2024-01-16T10:06:07;2.60;99.90
20829;DHT22;10575;50.124;8.582;2024-01-16T10:08:33;2.50;99.90
20829;DHT22;10575;50.124;8.582;2024-01-16T10:10:59;2.40;99.90
20829;DHT22;10575;50.124;8.582;2024-01-16T10:13:25;2.40;99.90
20829;DHT22;10575;50.124;8.582;2024-01-16T10:15:52;2.40;99.90
20829;DHT22;10575;50.124;8.582;2024-01-16T10:18:28;2.40;99.90
20829;DHT22;10575;50.124;8.582;2024-01-16T10:20:55;2.40;99.90
20829;DHT22;10575;50.124;8.582;2024-01-16T10:23:24;2.30;99.90
20829;DHT22;10575;50.124;8.582;2024-01-16T10:28:30;2.30;99.90
20829;DHT22;10575;50.124;8.582;2024-01-16T10:31:05;2.30;99.90
20829;DHT22;10575;50.124;8.582;2024-01-16T10:33:30;2.20;99.90
20829;DHT22;10575;50.124;8.582;2024-01-16T10:38:35;2.20;99.90
20829;DHT22;10575;50.124;8.582;2024-01-16T10:41:08;2.30;99.90
20829;DHT22;10575;50.124;8.582;2024-01-16T10:43:37;2.30;99.90
20829;DHT22;10575;50.124;8.582;2024-01-16T10:46:17;2.40;99.90
20829;DHT22;10575;50.124;8.582;2024-01-16T10:48:45;2.50;99.90
20829;DHT22;10575;50.124;8.582;2024-01-16T10:51:14;2.50;99.90
20829;DHT22;10575;50.124;8.582;2024-01-16T10:53:42;2.70;99.90
20829;DHT22;10575;50.124;8.582;2024-01-16T10:56:10;2.70;99.90
20829;DHT22;10575;50.124;8.582;2024-01-16T10:58:41;2.80;99.90
20829;DHT22;10575;50.124;8.582;2024-01-16T11:01:10;3.10;99.90
20829;DHT22;10575;50.124;8.582;2024-01-16T11:03:49;3.20;99.90
20829;DHT22;10575;50.124;8.582;2024-01-16T11:06:16;3.60;99.90
20829;DHT22;10575;50.124;8.582;2024-01-16T11:08:45;3.70;99.90
20829;DHT22;10575;50.124;8.582;2024-01-16T11:11:14;3.70;99.90
20829;DHT22;10575;50.124;8.582;2024-01-16T11:13:41;3.90;99.90
20829;DHT22;10575;50.124;8.582;2024-01-16T11:16:10;3.90;99.90
20829;DHT22;10575;50.124;8.582;2024-01-16T11:18:36;4.00;99.90
20829;DHT22;10575;50.124;8.582;2024-01-16T11:21:07;3.90;99.90
20829;DHT22;10575;50.124;8.582;2024-01-16T11:23:34;3.90;99.90
20829;DHT22;10575;50.124;8.582;2024-01-16T11:26:27;4.00;99.90
20829;DHT22;10575;50.124;8.582;2024-01-16T11:28:54;4.10;99.90
20829;DHT22;10575;50.124;8.582;2024-01-16T11:31:34;4.10;99.90
20829;DHT22;10575;50.124;8.582;2024-01-16T11:34:01;4.10;99.90
20829;DHT22;10575;50.124;8.582;2024-01-16T11:36:49;4.20;99.90
20829;DHT22;10575;50.124;8.582;2024-01-16T11:39:24;4.30;99.90
20829;DHT22;10575;50.124;8.582;2024-01-16T11:42:00;4.20;99.90
20829;DHT22;10575;50.124;8.582;2024-01-16T11:44:48;4.30;99.90
20829;DHT22;10575;50.124;8.582;2024-01-16T11:47:17;4.20;99.90
20829;DHT22;10575;50.124;8.582;2024-01-16T11:49:43;4.10;99.90
20829;DHT22;10575;50.124;8.582;2024-01-16T11:52:09;4.10;99.90
20829;DHT22;10575;50.124;8.582;2024-01-16T11:54:36;4.20;99.90
20829;DHT22;10575;50.124;8.582;2024-01-16T12:00:00;4.30;99.90
20829;DHT22;10575;50.124;8.582;2024-01-16T12:02:34;4.30;99.90
20829;DHT22;10575;50.124;8.582;2024-01-16T12:05:03;4.30;99.90
20829;DHT22;10575;50.124;8.582;2024-01-16T12:07:49;4.20;99.90
20829;DHT22;10575;50.124;8.582;2024-01-16T12:10:24;4.30;99.90
20829;DHT22;10575;50.124;8.582;2024-01-16T12:12:51;4.40;99.90
20829;DHT22;10575;50.124;8.582;2024-01-16T12:15:21;4.50;99.90
20829;DHT22;10575;50.124;8.582;2024-01-16T12:20:19;4.60;99.90
20829;DHT22;10575;50.124;8.582;2024-01-16T12:22:45;4.50;99.90
20829;DHT22;10575;50.124;8.582;2024-01-16T12:25:10;4.40;99.90
20829;DHT22;10575;50.124;8.582;2024-01-16T12:27:38;4.30;99.90
20829;DHT22;10575;50.124;8.582;2024-01-16T12:30:07;4.10;99.90
20829;DHT22;10575;50.124;8.582;2024-01-16T12:32:33;4.00;99.90
20829;DHT22;10575;50.124;8.582;2024-01-16T12:34:58;4.00;99.90
20829;DHT22;10575;50.124;8.582;2024-01-16T12:37:24;4.00;99.90
20829;DHT22;10575;50.124;8.582;2024-01-16T12:39:49;3.90;99.90
20829;DHT22;10575;50.124;8.582;2024-01-16T12:42:17;4.00;99.90
20829;DHT22;10575;50.124;8.582;2024-01-16T12:44:43;4.00;99.90
20829;DHT22;10575;50.124;8.582;2024-01-16T12:47:08;4.10;99.90
20829;DHT22;10575;50.124;8.582;2024-01-16T12:49:40;3.90;99.90
20829;DHT22;10575;50.124;8.582;2024-01-16T12:52:20;3.90;99.90
20829;DHT22;10575;50.124;8.582;2024-01-16T12:54:47;3.80;99.90
20829;DHT22;10575;50.124;8.582;2024-01-16T12:57:19;3.60;99.90
20829;DHT22;10575;50.124;8.582;2024-01-16T12:59:46;3.60;99.90
20829;DHT22;10575;50.124;8.582;2024-01-16T13:02:22;3.60;99.90
20829;DHT22;10575;50.124;8.582;2024-01-16T13:04:59;3.60;99.90
20829;DHT22;10575;50.124;8.582;2024-01-16T13:07:27;3.50;99.90
20829;DHT22;10575;50.124;8.582;2024-01-16T13:10:11;3.30;99.90
20829;DHT22;10575;50.124;8.582;2024-01-16T13:12:37;3.20;99.90
20829;DHT22;10575;50.124;8.582;2024-01-16T13:15:03;3.20;99.90
20829;DHT22;10575;50.124;8.582;2024-01-16T13:17:32;3.20;99.90
20829;DHT22;10575;50.124;8.582;2024-01-16T13:19:57;3.10;99.90
20829;DHT22;10575;50.124;8.582;2024-01-16T13:22:23;3.10;99.90
20829;DHT22;10575;50.124;8.582;2024-01-16T13:24:48;3.10;99.90
20829;DHT22;10575;50.124;8.582;2024-01-16T13:27:14;3.10;99.90
20829;DHT22;10575;50.124;8.582;2024-01-16T13:29:39;3.00;99.90
20829;DHT22;10575;50.124;8.582;2024-01-16T13:32:06;3.00;99.90
20829;DHT22;10575;50.124;8.582;2024-01-16T13:34:31;3.00;99.90
20829;DHT22;10575;50.124;8.582;2024-01-16T13:36:58;2.90;99.90
20829;DHT22;10575;50.124;8.582;2024-01-16T13:39:26;3.00;99.90
20829;DHT22;10575;50.124;8.582;2024-01-16T13:41:53;2.80;99.90
20829;DHT22;10575;50.124;8.582;2024-01-16T13:44:21;2.90;99.90
20829;DHT22;10575;50.124;8.582;2024-01-16T13:46:46;3.00;99.90
20829;DHT22;10575;50.124;8.582;2024-01-16T13:49:12;2.80;99.90
20829;DHT22;10575;50.124;8.582;2024-01-16T13:51:37;2.60;99.90
20829;DHT22;10575;50.124;8.582;2024-01-16T13:54:03;2.70;99.90
20829;DHT22;10575;50.124;8.582;2024-01-16T13:56:29;2.70;99.90
20829;DHT22;10575;50.124;8.582;2024-01-16T13:58:54;2.80;99.90
20829;DHT22;10575;50.124;8.582;2024-01-16T14:01:20;2.80;99.90
20829;DHT22;10575;50.124;8.582;2024-01-16T14:03:47;2.90;99.90
20829;DHT22;10575;50.124;8.582;2024-01-16T14:06:12;2.90;99.90
20829;DHT22;10575;50.124;8.582;2024-01-16T14:08:39;2.80;99.90
20829;DHT22;10575;50.124;8.582;2024-01-16T14:11:04;2.80;99.90
20829;DHT22;10575;50.124;8.582;2024-01-16T14:13:30;2.70;99.90
20829;DHT22;10575;50.124;8.582;2024-01-16T14:15:56;2.70;99.90
20829;DHT22;10575;50.124;8.582;2024-01-16T14:18:22;2.70;99.90
20829;DHT22;10575;50.124;8.582;2024-01-16T14:20:48;2.70;99.90
20829;DHT22;10575;50.124;8.582;2024-01-16T14:23:13;2.70;99.90
20829;DHT22;10575;50.124;8.582;2024-01-16T14:25:41;2.80;99.90
20829;DHT22;10575;50.124;8.582;2024-01-16T14:28:09;2.90;99.90
20829;DHT22;10575;50.124;8.582;2024-01-16T14:30:36;2.90;99.90
20829;DHT22;10575;50.124;8.582;2024-01-16T14:33:02;3.10;99.90
20829;DHT22;10575;50.124;8.582;2024-01-16T14:35:27;3.10;99.90
20829;DHT22;10575;50.124;8.582;2024-01-16T14:37:53;3.10;99.90
20829;DHT22;10575;50.124;8.582;2024-01-16T14:40:20;3.30;99.90
20829;DHT22;10575;50.124;8.582;2024-01-16T14:42:49;3.50;99.90
20829;DHT22;10575;50.124;8.582;2024-01-16T14:45:17;3.40;99.90
20829;DHT22;10575;50.124;8.582;2024-01-16T14:47:43;3.50;99.90
20829;DHT22;10575;50.124;8.582;2024-01-16T14:50:10;3.60;99.90
20829;DHT22;10575;50.124;8.582;2024-01-16T14:52:37;3.60;99.90
20829;DHT22;10575;50.124;8.582;2024-01-16T14:55:04;3.80;99.90
20829;DHT22;10575;50.124;8.582;2024-01-16T14:57:33;3.70;99.90
20829;DHT22;10575;50.124;8.582;2024-01-16T15:00:04;3.60;99.90
20829;DHT22;10575;50.124;8.582;2024-01-16T15:02:30;3.50;99.90
20829;DHT22;10575;50.124;8.582;2024-01-16T15:04:55;3.50;99.90
20829;DHT22;10575;50.124;8.582;2024-01-16T15:07:21;3.50;99.90
20829;DHT22;10575;50.124;8.582;2024-01-16T15:09:47;3.30;99.90
20829;DHT22;10575;50.124;8.582;2024-01-16T15:12:12;3.30;99.90
20829;DHT22;10575;50.124;8.582;2024-01-16T15:14:38;3.10;99.90
20829;DHT22;10575;50.124;8.582;2024-01-16T15:17:04;2.90;99.90
20829;DHT22;10575;50.124;8.582;2024-01-16T15:19:29;2.80;99.90
20829;DHT22;10575;50.124;8.582;2024-01-16T15:21:55;2.80;99.90
20829;DHT22;10575;50.124;8.582;2024-01-16T15:24:21;2.70;99.90
20829;DHT22;10575;50.124;8.582;2024-01-16T15:26:56;2.70;99.90
20829;DHT22;10575;50.124;8.582;2024-01-16T15:29:23;2.60;99.90
20829;DHT22;10575;50.124;8.582;2024-01-16T15:31:49;2.50;99.90
20829;DHT22;10575;50.124;8.582;2024-01-16T15:34:14;2.50;99.90
20829;DHT22;10575;50.124;8.582;2024-01-16T15:36:40;2.50;99.90
20829;DHT22;10575;50.124;8.582;2024-01-16T15:39:05;2.50;99.90
20829;DHT22;10575;50.124;8.582;2024-01-16T15:41:32;2.40;99.90
20829;DHT22;10575;50.124;8.582;2024-01-16T15:43:58;2.40;99.90
20829;DHT22;10575;50.124;8.582;2024-01-16T15:46:23;2.30;99.90
20829;DHT22;10575;50.124;8.582;2024-01-16T15:48:49;2.30;99.90
20829;DHT22;10575;50.124;8.582;2024-01-16T15:51:16;2.20;99.90
20829;DHT22;10575;50.124;8.582;2024-01-16T15:53:42;2.10;99.90